sensor_id;sensor_type;location;lat;lon;timestamp;pressure;altitude;pressure_sealevel;temperature;humidity
51829;BME280;37881;48.024;8.774;2023-11-21T00:02:23;93352.50;;;5.88;100.00
51829;BME280;37881;48.024;8.774;2023-11-21T00:04:50;93353.66;;;5.91;100.00
51829;BME280;37881;48.024;8.774;2023-11-21T00:07:17;93347.41;;;5.94;100.00
51829;BME280;37881;48.024;8.774;2023-11-21T00:09:44;93352.06;;;5.93;100.00
51829;BME280;37881;48.024;8.774;2023-11-21T00:12:11;93349.75;;;5.95;100.00
51829;BME280;37881;48.024;8.774;2023-11-21T00:14:37;93348.91;;;6.06;100.00
51829;BME280;37881;48.024;8.774;2023-11-21T00:17:05;93346.59;;;6.00;100.00
51829;BME280;37881;48.024;8.774;2023-11-21T00:19:32;93349.34;;;5.97;100.00
51829;BME280;37881;48.024;8.774;2023-11-21T00:22:02;93353.94;;;6.07;100.00
51829;BME280;37881;48.024;8.774;2023-11-21T00:24:29;93351.56;;;6.13;100.00
51829;BME280;37881;48.024;8.774;2023-11-21T00:26:55;93350.38;;;6.17;100.00
51829;BME280;37881;48.024;8.774;2023-11-21T00:29:22;93346.09;;;6.16;100.00
51829;BME280;37881;48.024;8.774;2023-11-21T00:31:49;93355.53;;;6.01;100.00
51829;BME280;37881;48.024;8.774;2023-11-21T00:34:16;93355.16;;;6.03;100.00
51829;BME280;37881;48.024;8.774;2023-11-21T00:36:43;93351.00;;;5.80;100.00
51829;BME280;37881;48.024;8.774;2023-11-21T00:39:09;93358.34;;;5.87;100.00
51829;BME280;37881;48.024;8.774;2023-11-21T00:41:38;93351.69;;;5.95;100.00
51829;BME280;37881;48.024;8.774;2023-11-21T00:44:05;93354.75;;;6.04;100.00
51829;BME280;37881;48.024;8.774;2023-11-21T00:46:33;93356.28;;;6.09;100.00
51829;BME280;37881;48.024;8.774;2023-11-21T00:49:00;93358.66;;;5.99;100.00
51829;BME280;37881;48.024;8.774;2023-11-21T00:51:26;93364.63;;;5.76;100.00
51829;BME280;37881;48.024;8.774;2023-11-21T00:53:53;93358.50;;;5.58;100.00
51829;BME280;37881;48.024;8.774;2023-11-21T00:56:20;93346.44;;;5.59;100.00
51829;BME280;37881;48.024;8.774;2023-11-21T00:58:47;93346.44;;;5.59;100.00
51829;BME280;37881;48.024;8.774;2023-11-21T01:01:16;93348.00;;;5.64;100.00
51829;BME280;37881;48.024;8.774;2023-11-21T01:03:46;93350.63;;;5.74;100.00
51829;BME280;37881;48.024;8.774;2023-11-21T01:06:13;93351.72;;;5.88;100.00
51829;BME280;37881;48.024;8.774;2023-11-21T01:08:43;93350.13;;;5.94;100.00
51829;BME280;37881;48.024;8.774;2023-11-21T01:11:11;93345.94;;;5.82;100.00
51829;BME280;37881;48.024;8.774;2023-11-21T01:13:39;93349.78;;;5.88;100.00
51829;BME280;37881;48.024;8.774;2023-11-21T01:16:07;93352.47;;;5.92;100.00
51829;BME280;37881;48.024;8.774;2023-11-21T01:18:35;93349.72;;;5.99;100.00
51829;BME280;37881;48.024;8.774;2023-11-21T01:21:02;93349.69;;;6.03;100.00
51829;BME280;37881;48.024;8.774;2023-11-21T01:23:28;93347.72;;;6.07;100.00
51829;BME280;37881;48.024;8.774;2023-11-21T01:25:56;93351.19;;;6.11;100.00
51829;BME280;37881;48.024;8.774;2023-11-21T01:28:23;93350.81;;;6.12;100.00
51829;BME280;37881;48.024;8.774;2023-11-21T01:30:50;93349.78;;;5.88;100.00
51829;BME280;37881;48.024;8.774;2023-11-21T01:33:17;93357.50;;;5.93;100.00
51829;BME280;37881;48.024;8.774;2023-11-21T01:35:45;93353.25;;;5.96;100.00
51829;BME280;37881;48.024;8.774;2023-11-21T01:38:13;93345.59;;;5.69;100.00
51829;BME280;37881;48.024;8.774;2023-11-21T01:40:40;93352.41;;;5.32;100.00
51829;BME280;37881;48.024;8.774;2023-11-21T01:43:07;93347.78;;;5.29;100.00
51829;BME280;37881;48.024;8.774;2023-11-21T01:45:35;93355.94;;;5.26;100.00
51829;BME280;37881;48.024;8.774;2023-11-21T01:48:02;93346.16;;;5.43;100.00
51829;BME280;37881;48.024;8.774;2023-11-21T01:50:30;93343.47;;;5.35;100.00
51829;BME280;37881;48.024;8.774;2023-11-21T01:52:57;93345.00;;;5.36;100.00
51829;BME280;37881;48.024;8.774;2023-11-21T01:55:24;93346.59;;;5.30;100.00
51829;BME280;37881;48.024;8.774;2023-11-21T01:57:57;93346.19;;;5.35;100.00
51829;BME280;37881;48.024;8.774;2023-11-21T02:00:24;93343.44;;;5.39;100.00
51829;BME280;37881;48.024;8.774;2023-11-21T02:02:52;93343.88;;;5.34;100.00
51829;BME280;37881;48.024;8.774;2023-11-21T02:05:19;93343.03;;;5.40;100.00
51829;BME280;37881;48.024;8.774;2023-11-21T02:07:48;93340.34;;;5.37;100.00
51829;BME280;37881;48.024;8.774;2023-11-21T02:10:15;93347.72;;;5.40;100.00
51829;BME280;37881;48.024;8.774;2023-11-21T02:12:43;93339.53;;;5.44;100.00
51829;BME280;37881;48.024;8.774;2023-11-21T02:15:13;93344.56;;;5.49;100.00
51829;BME280;37881;48.024;8.774;2023-11-21T02:17:47;93344.16;;;5.50;100.00
51829;BME280;37881;48.024;8.774;2023-11-21T02:20:22;93341.78;;;5.59;100.00
51829;BME280;37881;48.024;8.774;2023-11-21T02:22:55;93343.72;;;5.63;100.00
51829;BME280;37881;48.024;8.774;2023-11-21T02:25:31;93330.84;;;5.63;100.00
51829;BME280;37881;48.024;8.774;2023-11-21T02:28:03;93328.50;;;5.69;100.00
51829;BME280;37881;48.024;8.774;2023-11-21T02:30:30;93321.94;;;5.59;100.00
51829;BME280;37881;48.024;8.774;2023-11-21T02:33:01;93325.41;;;5.63;100.00
51829;BME280;37881;48.024;8.774;2023-11-21T02:35:28;93322.38;;;5.54;100.00
51829;BME280;37881;48.024;8.774;2023-11-21T02:37:58;93323.91;;;5.58;100.00
51829;BME280;37881;48.024;8.774;2023-11-21T02:40:24;93322.41;;;5.50;100.00
51829;BME280;37881;48.024;8.774;2023-11-21T02:42:53;93326.66;;;5.51;100.00
51829;BME280;37881;48.024;8.774;2023-11-21T02:45:20;93313.41;;;5.57;100.00
51829;BME280;37881;48.024;8.774;2023-11-21T02:47:48;93326.63;;;5.55;100.00
51829;BME280;37881;48.024;8.774;2023-11-21T02:50:20;93315.72;;;5.58;100.00
51829;BME280;37881;48.024;8.774;2023-11-21T02:52:49;93316.19;;;5.50;100.00
51829;BME280;37881;48.024;8.774;2023-11-21T02:55:16;93311.47;;;5.57;100.00
51829;BME280;37881;48.024;8.774;2023-11-21T02:57:43;93315.75;;;5.55;100.00
51829;BME280;37881;48.024;8.774;2023-11-21T03:00:10;93319.94;;;5.70;100.00
51829;BME280;37881;48.024;8.774;2023-11-21T03:02:39;93329.78;;;5.50;100.00
51829;BME280;37881;48.024;8.774;2023-11-21T03:05:07;93335.66;;;5.41;100.00
51829;BME280;37881;48.024;8.774;2023-11-21T03:07:39;93332.91;;;5.48;100.00
51829;BME280;37881;48.024;8.774;2023-11-21T03:10:08;93328.25;;;5.45;100.00
51829;BME280;37881;48.024;8.774;2023-11-21T03:12:39;93330.31;;;5.19;100.00
51829;BME280;37881;48.024;8.774;2023-11-21T03:15:07;93326.47;;;5.13;100.00
51829;BME280;37881;48.024;8.774;2023-11-21T03:17:34;93324.47;;;5.25;100.00
51829;BME280;37881;48.024;8.774;2023-11-21T03:20:00;93325.22;;;5.29;100.00
51829;BME280;37881;48.024;8.774;2023-11-21T03:22:27;93316.72;;;5.19;100.00
51829;BME280;37881;48.024;8.774;2023-11-21T03:24:54;93312.50;;;5.04;100.00
51829;BME280;37881;48.024;8.774;2023-11-21T03:27:21;93311.81;;;4.89;100.00
51829;BME280;37881;48.024;8.774;2023-11-21T03:29:48;93325.78;;;4.88;100.00
51829;BME280;37881;48.024;8.774;2023-11-21T03:32:15;93313.72;;;4.89;100.00
51829;BME280;37881;48.024;8.774;2023-11-21T03:34:55;93318.00;;;4.90;100.00
51829;BME280;37881;48.024;8.774;2023-11-21T03:37:26;93320.34;;;4.91;100.00
51829;BME280;37881;48.024;8.774;2023-11-21T03:39:57;93315.66;;;4.92;100.00
51829;BME280;37881;48.024;8.774;2023-11-21T03:42:24;93318.41;;;4.85;100.00
51829;BME280;37881;48.024;8.774;2023-11-21T03:44:53;93315.34;;;4.75;100.00
51829;BME280;37881;48.024;8.774;2023-11-21T03:47:20;93319.59;;;4.80;100.00
51829;BME280;37881;48.024;8.774;2023-11-21T03:49:47;93328.50;;;4.84;100.00
51829;BME280;37881;48.024;8.774;2023-11-21T03:52:14;93330.44;;;4.87;100.00
51829;BME280;37881;48.024;8.774;2023-11-21T03:54:40;93331.56;;;4.97;100.00
51829;BME280;37881;48.024;8.774;2023-11-21T03:57:07;93333.88;;;4.98;100.00
51829;BME280;37881;48.024;8.774;2023-11-21T03:59:34;93324.56;;;5.03;100.00
51829;BME280;37881;48.024;8.774;2023-11-21T04:02:01;93328.06;;;5.07;100.00
51829;BME280;37881;48.024;8.774;2023-11-21T04:04:27;93329.59;;;5.08;100.00
51829;BME280;37881;48.024;8.774;2023-11-21T04:06:54;93331.66;;;4.79;100.00
51829;BME280;37881;48.024;8.774;2023-11-21T04:09:21;93329.69;;;4.72;100.00
51829;BME280;37881;48.024;8.774;2023-11-21T04:11:52;93325.41;;;4.78;100.00
51829;BME280;37881;48.024;8.774;2023-11-21T04:14:19;93323.09;;;4.77;100.00
51829;BME280;37881;48.024;8.774;2023-11-21T04:16:46;93330.09;;;4.74;100.00
51829;BME280;37881;48.024;8.774;2023-11-21T04:19:13;93335.50;;;4.85;100.00
51829;BME280;37881;48.024;8.774;2023-11-21T04:21:43;93338.19;;;4.96;100.00
51829;BME280;37881;48.024;8.774;2023-11-21T04:24:10;93330.41;;;5.05;100.00
51829;BME280;37881;48.024;8.774;2023-11-21T04:26:37;93333.88;;;5.09;100.00
51829;BME280;37881;48.024;8.774;2023-11-21T04:29:04;93335.00;;;5.15;100.00
51829;BME280;37881;48.024;8.774;2023-11-21T04:31:31;93333.06;;;5.19;100.00
51829;BME280;37881;48.024;8.774;2023-11-21T04:33:58;93335.34;;;5.21;100.00
51829;BME280;37881;48.024;8.774;2023-11-21T04:36:25;93329.53;;;5.23;100.00
51829;BME280;37881;48.024;8.774;2023-11-21T04:38:52;93335.72;;;5.30;100.00
51829;BME280;37881;48.024;8.774;2023-11-21T04:41:19;93323.69;;;5.28;100.00
51829;BME280;37881;48.024;8.774;2023-11-21T04:43:46;93333.38;;;5.29;100.00
51829;BME280;37881;48.024;8.774;2023-11-21T04:46:13;93340.78;;;5.25;100.00
51829;BME280;37881;48.024;8.774;2023-11-21T04:48:39;93338.56;;;5.05;100.00
51829;BME280;37881;48.024;8.774;2023-11-21T04:51:06;93348.22;;;5.13;100.00
51829;BME280;37881;48.024;8.774;2023-11-21T04:53:33;93343.56;;;5.10;100.00
51829;BME280;37881;48.024;8.774;2023-11-21T04:56:01;93348.22;;;5.13;100.00
51829;BME280;37881;48.024;8.774;2023-11-21T04:58:28;93340.47;;;5.08;100.00
51829;BME280;37881;48.024;8.774;2023-11-21T05:00:54;93341.66;;;5.00;100.00
51829;BME280;37881;48.024;8.774;2023-11-21T05:03:21;93338.19;;;4.99;100.00
51829;BME280;37881;48.024;8.774;2023-11-21T05:05:50;93342.13;;;4.73;100.00
51829;BME280;37881;48.024;8.774;2023-11-21T05:08:17;93340.94;;;4.82;100.00
51829;BME280;37881;48.024;8.774;2023-11-21T05:10:45;93349.09;;;4.78;100.00
51829;BME280;37881;48.024;8.774;2023-11-21T05:13:12;93344.84;;;4.70;100.00
51829;BME280;37881;48.024;8.774;2023-11-21T05:15:39;93342.91;;;4.74;100.00
51829;BME280;37881;48.024;8.774;2023-11-21T05:18:06;93346.00;;;4.76;100.00
51829;BME280;37881;48.024;8.774;2023-11-21T05:20:33;93343.28;;;4.76;100.00
51829;BME280;37881;48.024;8.774;2023-11-21T05:23:00;93349.50;;;4.84;100.00
51829;BME280;37881;48.024;8.774;2023-11-21T05:25:27;93346.72;;;4.91;100.00
51829;BME280;37881;48.024;8.774;2023-11-21T05:27:54;93344.41;;;4.93;100.00
51829;BME280;37881;48.024;8.774;2023-11-21T05:30:25;93345.19;;;4.86;100.00
51829;BME280;37881;48.024;8.774;2023-11-21T05:32:52;93344.47;;;4.68;100.00
51829;BME280;37881;48.024;8.774;2023-11-21T05:35:20;93342.53;;;4.68;100.00
51829;BME280;37881;48.024;8.774;2023-11-21T05:37:47;93345.63;;;4.67;100.00
51829;BME280;37881;48.024;8.774;2023-11-21T05:40:14;93353.41;;;4.65;100.00
51829;BME280;37881;48.024;8.774;2023-11-21T05:42:41;93346.44;;;4.64;100.00
51829;BME280;37881;48.024;8.774;2023-11-21T05:45:08;93348.34;;;4.70;100.00
51829;BME280;37881;48.024;8.774;2023-11-21T05:47:43;93360.78;;;4.75;100.00
51829;BME280;37881;48.024;8.774;2023-11-21T05:50:15;93356.09;;;4.79;100.00
51829;BME280;37881;48.024;8.774;2023-11-21T05:52:46;93354.16;;;4.79;100.00
51829;BME280;37881;48.024;8.774;2023-11-21T05:55:13;93353.41;;;4.65;100.00
51829;BME280;37881;48.024;8.774;2023-11-21T05:57:41;93356.94;;;4.51;100.00
51829;BME280;37881;48.024;8.774;2023-11-21T06:00:10;93360.00;;;4.64;100.00
51829;BME280;37881;48.024;8.774;2023-11-21T06:02:40;93359.25;;;4.59;100.00
51829;BME280;37881;48.024;8.774;2023-11-21T06:05:08;93363.16;;;4.55;100.00
51829;BME280;37881;48.024;8.774;2023-11-21T06:07:35;93357.31;;;4.46;100.00
51829;BME280;37881;48.024;8.774;2023-11-21T06:10:04;93370.50;;;4.54;100.00
51829;BME280;37881;48.024;8.774;2023-11-21T06:12:39;93374.78;;;4.59;100.00
51829;BME280;37881;48.024;8.774;2023-11-21T06:15:07;93372.06;;;4.59;100.00
51829;BME280;37881;48.024;8.774;2023-11-21T06:17:36;93371.25;;;4.58;100.00
51829;BME280;37881;48.024;8.774;2023-11-21T06:20:04;93372.44;;;4.54;100.00
51829;BME280;37881;48.024;8.774;2023-11-21T06:22:42;93377.88;;;4.61;100.00
51829;BME280;37881;48.024;8.774;2023-11-21T06:25:10;93386.41;;;4.56;100.00
51829;BME280;37881;48.024;8.774;2023-11-21T06:27:43;93382.94;;;4.45;100.00
51829;BME280;37881;48.024;8.774;2023-11-21T06:30:14;93386.44;;;4.42;100.00
51829;BME280;37881;48.024;8.774;2023-11-21T06:32:42;93398.47;;;4.30;100.00
51829;BME280;37881;48.024;8.774;2023-11-21T06:35:13;93399.63;;;4.29;100.00
51829;BME280;37881;48.024;8.774;2023-11-21T06:37:40;93404.69;;;4.23;100.00
51829;BME280;37881;48.024;8.774;2023-11-21T06:40:07;93405.06;;;4.25;100.00
51829;BME280;37881;48.024;8.774;2023-11-21T06:42:34;93412.44;;;4.32;100.00
51829;BME280;37881;48.024;8.774;2023-11-21T06:45:01;93415.56;;;4.41;100.00
51829;BME280;37881;48.024;8.774;2023-11-21T06:47:30;93421.38;;;4.47;100.00
51829;BME280;37881;48.024;8.774;2023-11-21T06:49:58;93420.97;;;4.59;100.00
51829;BME280;37881;48.024;8.774;2023-11-21T06:52:25;93425.63;;;4.66;100.00
51829;BME280;37881;48.024;8.774;2023-11-21T06:54:52;93424.84;;;4.72;100.00
51829;BME280;37881;48.024;8.774;2023-11-21T06:57:19;93430.28;;;4.72;100.00
51829;BME280;37881;48.024;8.774;2023-11-21T06:59:45;93427.94;;;4.74;100.00
51829;BME280;37881;48.024;8.774;2023-11-21T07:02:12;93429.47;;;4.83;100.00
51829;BME280;37881;48.024;8.774;2023-11-21T07:04:39;93424.84;;;4.76;100.00
51829;BME280;37881;48.024;8.774;2023-11-21T07:07:06;93421.72;;;4.92;100.00
51829;BME280;37881;48.024;8.774;2023-11-21T07:09:33;93421.66;;;5.10;100.00
51829;BME280;37881;48.024;8.774;2023-11-21T07:12:00;93425.91;;;5.22;100.00
51829;BME280;37881;48.024;8.774;2023-11-21T07:14:30;93427.50;;;5.08;100.00
51829;BME280;37881;48.024;8.774;2023-11-21T07:16:57;93439.09;;;5.27;100.00
51829;BME280;37881;48.024;8.774;2023-11-21T07:19:24;93437.22;;;5.06;100.00
51829;BME280;37881;48.024;8.774;2023-11-21T07:21:51;93442.97;;;5.40;100.00
51829;BME280;37881;48.024;8.774;2023-11-21T07:24:18;93441.44;;;5.32;100.00
51829;BME280;37881;48.024;8.774;2023-11-21T07:26:45;93441.81;;;5.37;100.00
51829;BME280;37881;48.024;8.774;2023-11-21T07:29:11;93447.19;;;5.55;100.00
51829;BME280;37881;48.024;8.774;2023-11-21T07:31:40;93444.84;;;5.57;100.00
51829;BME280;37881;48.024;8.774;2023-11-21T07:34:08;93441.69;;;5.70;100.00
51829;BME280;37881;48.024;8.774;2023-11-21T07:36:35;93445.53;;;5.79;100.00
51829;BME280;37881;48.024;8.774;2023-11-21T07:39:02;93444.72;;;5.79;100.00
51829;BME280;37881;48.024;8.774;2023-11-21T07:41:29;93454.41;;;5.94;100.00
51829;BME280;37881;48.024;8.774;2023-11-21T07:43:57;93449.75;;;5.95;100.00
51829;BME280;37881;48.024;8.774;2023-11-21T07:46:26;93446.56;;;6.07;100.00
51829;BME280;37881;48.024;8.774;2023-11-21T07:48:54;93446.25;;;5.98;100.00
51829;BME280;37881;48.024;8.774;2023-11-21T07:51:21;93450.09;;;5.93;100.00
51829;BME280;37881;48.024;8.774;2023-11-21T07:53:48;93449.25;;;6.14;100.00
51829;BME280;37881;48.024;8.774;2023-11-21T07:56:16;93458.25;;;6.08;100.00
51829;BME280;37881;48.024;8.774;2023-11-21T07:58:43;93457.47;;;6.07;100.00
51829;BME280;37881;48.024;8.774;2023-11-21T08:01:11;93456.28;;;6.08;100.00
51829;BME280;37881;48.024;8.774;2023-11-21T08:03:38;93455.50;;;6.11;100.00
51829;BME280;37881;48.024;8.774;2023-11-21T08:06:05;93456.31;;;6.01;100.00
51829;BME280;37881;48.024;8.774;2023-11-21T08:08:32;93455.09;;;6.13;100.00
51829;BME280;37881;48.024;8.774;2023-11-21T08:10:59;93456.31;;;6.05;100.00
51829;BME280;37881;48.024;8.774;2023-11-21T08:13:29;93455.47;;;6.18;100.00
51829;BME280;37881;48.024;8.774;2023-11-21T08:15:58;93460.19;;;6.04;100.00
51829;BME280;37881;48.024;8.774;2023-11-21T08:18:29;93461.47;;;5.77;100.00
51829;BME280;37881;48.024;8.774;2023-11-21T08:20:56;93463.75;;;5.97;100.00
51829;BME280;37881;48.024;8.774;2023-11-21T08:23:23;93464.88;;;5.99;100.00
51829;BME280;37881;48.024;8.774;2023-11-21T08:25:53;93469.16;;;5.93;100.00
51829;BME280;37881;48.024;8.774;2023-11-21T08:28:21;93465.97;;;6.16;100.00
51829;BME280;37881;48.024;8.774;2023-11-21T08:30:53;93463.84;;;6.46;100.00
51829;BME280;37881;48.024;8.774;2023-11-21T08:33:21;93466.50;;;6.56;100.00
51829;BME280;37881;48.024;8.774;2023-11-21T08:35:48;93464.16;;;6.55;100.00
51829;BME280;37881;48.024;8.774;2023-11-21T08:38:15;93460.84;;;6.26;100.00
51829;BME280;37881;48.024;8.774;2023-11-21T08:40:42;93461.53;;;6.40;100.00
51829;BME280;37881;48.024;8.774;2023-11-21T08:43:08;93458.81;;;6.40;100.00
51829;BME280;37881;48.024;8.774;2023-11-21T08:45:35;93460.13;;;6.18;100.00
51829;BME280;37881;48.024;8.774;2023-11-21T08:48:03;93469.91;;;6.12;100.00
51829;BME280;37881;48.024;8.774;2023-11-21T08:50:30;93468.69;;;6.20;100.00
51829;BME280;37881;48.024;8.774;2023-11-21T08:52:56;93467.16;;;6.71;100.00
51829;BME280;37881;48.024;8.774;2023-11-21T08:55:24;93467.94;;;7.17;100.00
51829;BME280;37881;48.024;8.774;2023-11-21T08:57:51;93455.88;;;7.14;100.00
51829;BME280;37881;48.024;8.774;2023-11-21T09:00:17;93465.84;;;6.90;100.00
51829;BME280;37881;48.024;8.774;2023-11-21T09:02:45;93471.00;;;7.23;100.00
51829;BME280;37881;48.024;8.774;2023-11-21T09:05:14;93471.84;;;7.54;100.00
51829;BME280;37881;48.024;8.774;2023-11-21T09:07:41;93475.91;;;7.38;100.00
51829;BME280;37881;48.024;8.774;2023-11-21T09:10:09;93481.09;;;7.26;100.00
51829;BME280;37881;48.024;8.774;2023-11-21T09:12:37;93479.03;;;7.40;100.00
51829;BME280;37881;48.024;8.774;2023-11-21T09:15:05;93487.88;;;7.48;100.00
51829;BME280;37881;48.024;8.774;2023-11-21T09:17:33;93482.31;;;7.63;100.00
51829;BME280;37881;48.024;8.774;2023-11-21T09:20:01;93487.00;;;7.20;100.00
51829;BME280;37881;48.024;8.774;2023-11-21T09:22:30;93494.13;;;7.07;100.00
51829;BME280;37881;48.024;8.774;2023-11-21T09:24:58;93501.06;;;7.19;100.00
51829;BME280;37881;48.024;8.774;2023-11-21T09:27:25;93495.13;;;7.28;100.00
51829;BME280;37881;48.024;8.774;2023-11-21T09:29:54;93495.13;;;7.28;100.00
51829;BME280;37881;48.024;8.774;2023-11-21T09:32:21;93498.66;;;7.25;100.00
51829;BME280;37881;48.024;8.774;2023-11-21T09:34:49;93490.88;;;7.23;100.00
51829;BME280;37881;48.024;8.774;2023-11-21T09:37:17;93498.94;;;6.92;100.00
51829;BME280;37881;48.024;8.774;2023-11-21T09:39:44;93502.81;;;6.98;100.00
51829;BME280;37881;48.024;8.774;2023-11-21T09:42:23;93497.28;;;7.02;100.00
51829;BME280;37881;48.024;8.774;2023-11-21T09:47:30;93493.81;;;7.43;100.00
51829;BME280;37881;48.024;8.774;2023-11-21T09:50:01;93499.53;;;7.52;100.00
51829;BME280;37881;48.024;8.774;2023-11-21T09:52:28;93500.38;;;7.49;100.00
51829;BME280;37881;48.024;8.774;2023-11-21T09:54:56;93501.78;;;7.27;100.00
51829;BME280;37881;48.024;8.774;2023-11-21T09:57:25;93499.72;;;7.34;100.00
51829;BME280;37881;48.024;8.774;2023-11-21T09:59:53;93497.16;;;7.58;100.00
51829;BME280;37881;48.024;8.774;2023-11-21T10:02:27;93495.94;;;7.63;100.00
51829;BME280;37881;48.024;8.774;2023-11-21T10:04:59;93501.34;;;7.28;100.00
51829;BME280;37881;48.024;8.774;2023-11-21T10:07:28;93492.44;;;7.62;100.00
51829;BME280;37881;48.024;8.774;2023-11-21T10:09:58;93493.44;;;7.79;100.00
51829;BME280;37881;48.024;8.774;2023-11-21T10:12:26;93496.25;;;8.03;100.00
51829;BME280;37881;48.024;8.774;2023-11-21T10:14:54;93502.69;;;8.19;100.00
51829;BME280;37881;48.024;8.774;2023-11-21T10:17:25;93506.00;;;8.34;100.00
51829;BME280;37881;48.024;8.774;2023-11-21T10:19:56;93506.00;;;8.34;100.00
51829;BME280;37881;48.024;8.774;2023-11-21T10:22:24;93502.03;;;8.39;100.00
51829;BME280;37881;48.024;8.774;2023-11-21T10:24:52;93501.72;;;8.33;100.00
51829;BME280;37881;48.024;8.774;2023-11-21T10:27:20;93494.56;;;8.12;100.00
51829;BME280;37881;48.024;8.774;2023-11-21T10:29:47;93496.97;;;8.07;100.00
51829;BME280;37881;48.024;8.774;2023-11-21T10:32:13;93506.81;;;8.00;100.00
51829;BME280;37881;48.024;8.774;2023-11-21T10:34:40;93496.78;;;7.90;100.00
51829;BME280;37881;48.024;8.774;2023-11-21T10:37:12;93507.88;;;8.10;100.00
51829;BME280;37881;48.024;8.774;2023-11-21T10:39:39;93511.88;;;8.02;100.00
51829;BME280;37881;48.024;8.774;2023-11-21T10:42:08;93509.72;;;7.86;100.00
51829;BME280;37881;48.024;8.774;2023-11-21T10:44:36;93507.88;;;7.76;100.00
51829;BME280;37881;48.024;8.774;2023-11-21T10:47:04;93509.97;;;7.65;100.00
51829;BME280;37881;48.024;8.774;2023-11-21T10:49:32;93501.44;;;7.59;100.00
51829;BME280;37881;48.024;8.774;2023-11-21T10:51:59;93499.44;;;7.63;100.00
51829;BME280;37881;48.024;8.774;2023-11-21T10:54:27;93504.28;;;7.48;100.00
51829;BME280;37881;48.024;8.774;2023-11-21T10:56:58;93504.50;;;7.65;100.00
51829;BME280;37881;48.024;8.774;2023-11-21T10:59:29;93505.34;;;7.58;100.00
51829;BME280;37881;48.024;8.774;2023-11-21T11:01:58;93496.56;;;7.77;100.00
51829;BME280;37881;48.024;8.774;2023-11-21T11:04:28;93495.94;;;7.63;100.00
51829;BME280;37881;48.024;8.774;2023-11-21T11:06:57;93502.56;;;7.65;100.00
51829;BME280;37881;48.024;8.774;2023-11-21T11:09:24;93510.56;;;7.45;100.00
51829;BME280;37881;48.024;8.774;2023-11-21T11:11:51;93507.50;;;7.36;100.00
51829;BME280;37881;48.024;8.774;2023-11-21T11:14:19;93512.53;;;7.45;100.00
51829;BME280;37881;48.024;8.774;2023-11-21T11:16:47;93514.28;;;7.62;100.00
51829;BME280;37881;48.024;8.774;2023-11-21T11:19:16;93516.94;;;7.69;100.00
51829;BME280;37881;48.024;8.774;2023-11-21T11:24:40;93506.13;;;7.58;100.00
51829;BME280;37881;48.024;8.774;2023-11-21T11:27:35;93506.16;;;7.55;100.00
51829;BME280;37881;48.024;8.774;2023-11-21T11:32:58;93508.75;;;7.69;100.00
51829;BME280;37881;48.024;8.774;2023-11-21T11:38:23;93506.63;;;7.46;100.00
51829;BME280;37881;48.024;8.774;2023-11-21T11:40:53;93506.53;;;7.57;100.00
51829;BME280;37881;48.024;8.774;2023-11-21T11:43:26;93511.66;;;7.51;100.00
51829;BME280;37881;48.024;8.774;2023-11-21T11:45:57;93517.56;;;7.46;100.00
51829;BME280;37881;48.024;8.774;2023-11-21T11:48:25;93512.19;;;7.39;100.00
51829;BME280;37881;48.024;8.774;2023-11-21T11:53:36;93511.19;;;7.60;100.00
51829;BME280;37881;48.024;8.774;2023-11-21T11:56:26;93514.66;;;7.60;100.00
51829;BME280;37881;48.024;8.774;2023-11-21T11:58:58;93520.38;;;7.77;100.00
51829;BME280;37881;48.024;8.774;2023-11-21T12:01:29;93512.34;;;7.63;100.00
51829;BME280;37881;48.024;8.774;2023-11-21T12:06:42;93508.63;;;7.80;100.00
51829;BME280;37881;48.024;8.774;2023-11-21T12:09:22;93509.16;;;8.02;100.00
51829;BME280;37881;48.024;8.774;2023-11-21T12:11:49;93515.91;;;7.90;100.00
51829;BME280;37881;48.024;8.774;2023-11-21T12:14:16;93514.91;;;8.11;100.00
51829;BME280;37881;48.024;8.774;2023-11-21T12:16:44;93509.44;;;8.11;100.00
51829;BME280;37881;48.024;8.774;2023-11-21T12:19:12;93505.19;;;8.37;100.00
51829;BME280;37881;48.024;8.774;2023-11-21T12:21:39;93506.91;;;8.24;100.00
51829;BME280;37881;48.024;8.774;2023-11-21T12:24:10;93514.34;;;8.24;100.00
51829;BME280;37881;48.024;8.774;2023-11-21T12:26:41;93511.56;;;7.58;100.00
51829;BME280;37881;48.024;8.774;2023-11-21T12:29:09;93516.53;;;7.71;100.00
51829;BME280;37881;48.024;8.774;2023-11-21T12:31:37;93514.91;;;8.11;100.00
51829;BME280;37881;48.024;8.774;2023-11-21T12:34:04;93512.59;;;7.75;100.00
51829;BME280;37881;48.024;8.774;2023-11-21T12:36:34;93515.88;;;7.59;100.00
51829;BME280;37881;48.024;8.774;2023-11-21T12:39:02;93519.66;;;8.04;100.00
51829;BME280;37881;48.024;8.774;2023-11-21T12:41:29;93520.84;;;8.03;100.00
51829;BME280;37881;48.024;8.774;2023-11-21T12:43:57;93521.16;;;8.39;100.00
51829;BME280;37881;48.024;8.774;2023-11-21T12:46:24;93520.34;;;8.46;100.00
51829;BME280;37881;48.024;8.774;2023-11-21T12:48:54;93521.41;;;7.87;100.00
51829;BME280;37881;48.024;8.774;2023-11-21T12:51:22;93511.81;;;8.09;100.00
51829;BME280;37881;48.024;8.774;2023-11-21T12:53:49;93517.66;;;8.08;100.00
51829;BME280;37881;48.024;8.774;2023-11-21T12:56:16;93528.41;;;7.91;100.00
51829;BME280;37881;48.024;8.774;2023-11-21T12:58:45;93520.97;;;7.92;100.00
51829;BME280;37881;48.024;8.774;2023-11-21T13:01:17;93522.38;;;7.73;100.00
51829;BME280;37881;48.024;8.774;2023-11-21T13:03:50;93524.38;;;7.69;100.00
51829;BME280;37881;48.024;8.774;2023-11-21T13:06:18;93528.97;;;7.34;100.00
51829;BME280;37881;48.024;8.774;2023-11-21T13:08:46;93529.00;;;7.72;100.00
51829;BME280;37881;48.024;8.774;2023-11-21T13:11:14;93528.03;;;7.51;100.00
51829;BME280;37881;48.024;8.774;2023-11-21T13:13:42;93526.28;;;7.72;100.00
51829;BME280;37881;48.024;8.774;2023-11-21T13:16:12;93525.19;;;7.62;100.00
51829;BME280;37881;48.024;8.774;2023-11-21T13:18:39;93529.56;;;7.56;100.00
51829;BME280;37881;48.024;8.774;2023-11-21T13:21:09;93526.63;;;7.36;100.00
51829;BME280;37881;48.024;8.774;2023-11-21T13:23:41;93536.72;;;7.43;100.00